createdAt,value
2018-04-23T00:00:58.163Z,45.53
2018-04-23T00:01:58.200Z,45.43
2018-04-23T00:02:58.263Z,45.53
2018-04-23T00:03:58.138Z,45.57
2018-04-23T00:04:58.255Z,45.44
2018-04-23T00:05:58.353Z,45.51
2018-04-23T00:06:58.216Z,45.55
2018-04-23T00:07:58.294Z,45.44
2018-04-23T00:08:58.270Z,45.46
2018-04-23T00:09:58.247Z,45.55
2018-04-23T00:10:58.080Z,45.51
2018-04-23T00:11:58.140Z,45.49
2018-04-23T00:12:58.215Z,45.53
2018-04-23T00:13:58.226Z,45.45
2018-04-23T00:14:58.367Z,45.44
2018-04-23T00:15:58.279Z,45.51
2018-04-23T00:16:58.345Z,45.4
2018-04-23T00:17:58.391Z,45.51
2018-04-23T00:18:58.198Z,45.5
2018-04-23T00:19:58.173Z,45.41
2018-04-23T00:20:58.150Z,45.5
2018-04-23T00:21:58.150Z,45.5
2018-04-23T00:22:58.437Z,45.44
2018-04-23T00:23:58.290Z,45.41
2018-04-23T00:24:58.190Z,45.48
2018-04-23T00:25:58.123Z,45.45
2018-04-23T00:26:58.252Z,45.5
2018-04-23T00:27:58.335Z,45.48
2018-04-23T00:28:58.294Z,45.4
2018-04-23T00:29:58.168Z,45.42
2018-04-23T00:30:58.180Z,45.41
2018-04-23T00:31:58.531Z,45.41
2018-04-23T00:32:58.229Z,45.44
2018-04-23T00:33:58.202Z,45.49
2018-04-23T00:34:58.315Z,45.3
2018-04-23T00:35:59.849Z,45.43
2018-04-23T00:36:58.189Z,45.51
2018-04-23T00:37:58.412Z,45.47
2018-04-23T00:38:58.331Z,45.45
2018-04-23T00:39:58.336Z,45.43
2018-04-23T00:40:58.270Z,45.36
2018-04-23T00:41:58.171Z,45.46
2018-04-23T00:42:58.255Z,45.45
2018-04-23T00:43:58.254Z,45.33
2018-04-23T00:44:58.267Z,45.37
2018-04-23T00:45:58.121Z,45.44
2018-04-23T00:46:58.215Z,45.34
2018-04-23T00:47:58.144Z,45.42
2018-04-23T00:48:58.080Z,45.42
2018-04-23T00:49:58.270Z,45.37
2018-04-23T00:50:58.302Z,45.37
2018-04-23T00:51:58.222Z,45.43
2018-04-23T00:52:58.320Z,45.38
2018-04-23T00:53:58.449Z,45.38
2018-04-23T00:54:58.092Z,45.5
2018-04-23T00:55:58.280Z,45.3
2018-04-23T00:56:58.366Z,45.31
2018-04-23T00:57:58.305Z,45.34
2018-04-23T00:58:58.205Z,45.33
2018-04-23T00:59:58.128Z,45.33
2018-04-23T01:00:58.282Z,45.41
2018-04-23T01:01:58.294Z,45.25
2018-04-23T01:02:58.275Z,45.33
2018-04-23T01:03:58.233Z,45.45
2018-04-23T01:04:58.186Z,45.33
2018-04-23T01:05:58.164Z,45.33
2018-04-23T01:06:58.324Z,45.39
2018-04-23T01:07:58.119Z,45.3
2018-04-23T01:08:58.231Z,45.33
2018-04-23T01:09:58.060Z,45.47
2018-04-23T01:10:58.202Z,45.36
2018-04-23T01:11:58.125Z,45.3
2018-04-23T01:12:58.249Z,45.38
2018-04-23T01:13:57.919Z,45.32
2018-04-23T01:14:58.175Z,45.38
2018-04-23T01:15:58.282Z,45.43
2018-04-23T01:16:58.114Z,45.29
2018-04-23T01:17:58.205Z,45.37
2018-04-23T01:18:58.162Z,45.38
2018-04-23T01:19:58.203Z,45.26
2018-04-23T01:20:58.277Z,45.29
2018-04-23T01:21:58.107Z,45.41
2018-04-23T01:22:58.302Z,45.33
2018-04-23T01:23:58.103Z,45.39
2018-04-23T01:24:58.108Z,45.4
2018-04-23T01:25:58.260Z,45.32
2018-04-23T01:26:58.217Z,45.43
2018-04-23T01:27:58.112Z,45.41
2018-04-23T01:28:58.454Z,45.3
2018-04-23T01:29:58.123Z,45.35
2018-04-23T01:30:58.424Z,45.36
2018-04-23T01:31:58.252Z,45.35
2018-04-23T01:32:58.112Z,45.29
2018-04-23T01:33:58.251Z,45.44
2018-04-23T01:34:58.114Z,45.31
2018-04-23T01:35:58.390Z,45.3
2018-04-23T01:36:58.214Z,45.37
2018-04-23T01:37:58.280Z,45.33
2018-04-23T01:38:57.934Z,45.3
2018-04-23T01:39:58.212Z,45.34
2018-04-23T01:40:58.232Z,45.35
2018-04-23T01:41:58.251Z,45.3
2018-04-23T01:42:58.225Z,45.39
2018-04-23T01:43:58.164Z,45.29
2018-04-23T01:44:58.116Z,45.36
2018-04-23T01:45:58.233Z,45.38
2018-04-23T01:46:58.155Z,45.28
2018-04-23T01:47:58.225Z,45.35
2018-04-23T01:48:58.226Z,45.39
2018-04-23T01:49:58.260Z,45.32
2018-04-23T01:50:58.203Z,45.28
2018-04-23T01:51:58.202Z,45.43
2018-04-23T01:52:58.039Z,45.34
2018-04-23T01:53:58.159Z,45.33
2018-04-23T01:54:58.297Z,45.41
2018-04-23T01:55:58.265Z,45.34
2018-04-23T01:56:58.124Z,45.34
2018-04-23T01:57:58.207Z,45.4
2018-04-23T01:58:58.017Z,45.35
2018-04-23T01:59:58.237Z,45.31
2018-04-23T02:00:58.189Z,45.41
2018-04-23T02:01:58.190Z,45.34
2018-04-23T02:02:58.132Z,45.31
2018-04-23T02:03:58.124Z,45.42
2018-04-23T02:04:58.162Z,45.36
2018-04-23T02:05:58.243Z,45.35
2018-04-23T02:06:58.075Z,45.42
2018-04-23T02:07:58.140Z,45.36
2018-04-23T02:08:58.086Z,45.29
2018-04-23T02:09:58.174Z,45.38
2018-04-23T02:10:58.266Z,45.33
2018-04-23T02:11:58.347Z,45.33
2018-04-23T02:12:58.179Z,45.35
2018-04-23T02:13:58.077Z,45.32
2018-04-23T02:14:58.207Z,45.29
2018-04-23T02:15:58.135Z,45.35
2018-04-23T02:16:58.186Z,45.32
2018-04-23T02:17:58.213Z,45.3
2018-04-23T02:18:58.204Z,45.37
2018-04-23T02:19:58.517Z,45.3
2018-04-23T02:20:58.301Z,45.32
2018-04-23T02:21:58.281Z,45.41
2018-04-23T02:22:58.276Z,45.33
2018-04-23T02:23:58.128Z,45.29
2018-04-23T02:24:58.223Z,45.35
2018-04-23T02:25:58.235Z,45.38
2018-04-23T02:26:58.193Z,45.3
2018-04-23T02:27:58.368Z,45.33
2018-04-23T02:28:59.148Z,45.35
2018-04-23T02:29:58.136Z,45.28
2018-04-23T02:30:58.224Z,45.39
2018-04-23T02:31:58.213Z,45.28
2018-04-23T02:32:58.197Z,45.36
2018-04-23T02:33:58.352Z,45.4
2018-04-23T02:34:58.001Z,45.35
2018-04-23T02:35:58.207Z,45.28
2018-04-23T02:36:58.271Z,45.43
2018-04-23T02:37:58.353Z,45.33
2018-04-23T02:38:58.052Z,45.34
2018-04-23T02:39:58.107Z,45.39
2018-04-23T02:40:58.057Z,45.36
2018-04-23T02:41:58.063Z,45.33
2018-04-23T02:42:58.200Z,45.35
2018-04-23T02:43:58.264Z,45.28
2018-04-23T02:44:58.279Z,45.28
2018-04-23T02:45:58.240Z,45.37
2018-04-23T02:46:58.148Z,45.29
2018-04-23T02:47:58.264Z,45.3
2018-04-23T02:48:58.150Z,45.37
2018-04-23T02:49:58.175Z,45.35
2018-04-23T02:50:58.279Z,45.29
2018-04-23T02:51:58.323Z,45.32
2018-04-23T02:52:58.269Z,45.29
2018-04-23T02:53:58.218Z,45.29
2018-04-23T02:54:58.250Z,45.36
2018-04-23T02:55:58.118Z,45.31
2018-04-23T02:56:58.056Z,45.31
2018-04-23T02:57:58.199Z,45.33
2018-04-23T02:58:58.161Z,45.3
2018-04-23T02:59:58.404Z,45.33
2018-04-23T03:00:58.164Z,45.35
2018-04-23T03:01:58.140Z,45.29
2018-04-23T03:02:58.079Z,45.33
2018-04-23T03:03:58.169Z,45.34
2018-04-23T03:04:58.092Z,45.31
2018-04-23T03:05:58.293Z,45.31
2018-04-23T03:06:58.075Z,45.37
2018-04-23T03:07:58.126Z,45.31
2018-04-23T03:08:58.243Z,45.32
2018-04-23T03:09:58.179Z,45.31
2018-04-23T03:10:58.152Z,45.33
2018-04-23T03:11:58.234Z,45.25
2018-04-23T03:12:58.164Z,45.33
2018-04-23T03:13:58.406Z,45.33
2018-04-23T03:14:58.147Z,45.32
2018-04-23T03:15:58.136Z,45.35
2018-04-23T03:16:58.038Z,45.31
2018-04-23T03:17:58.197Z,45.27
2018-04-23T03:18:58.249Z,45.33
2018-04-23T03:19:58.191Z,45.28
2018-04-23T03:20:58.224Z,45.29
2018-04-23T03:21:58.060Z,45.32
2018-04-23T03:22:58.119Z,45.27
2018-04-23T03:23:58.247Z,45.25
2018-04-23T03:24:58.244Z,45.27
2018-04-23T03:25:58.265Z,45.29
2018-04-23T03:26:58.176Z,45.25
2018-04-23T03:27:58.191Z,45.31
2018-04-23T03:28:58.230Z,45.29
2018-04-23T03:29:58.169Z,45.28
2018-04-23T03:30:58.371Z,45.3
2018-04-23T03:31:58.030Z,45.33
2018-04-23T03:32:58.179Z,45.24
2018-04-23T03:33:58.065Z,45.3
2018-04-23T03:34:58.199Z,45.29
2018-04-23T03:35:58.129Z,45.25
2018-04-23T03:36:58.209Z,45.27
2018-04-23T03:37:58.005Z,45.24
2018-04-23T03:38:58.129Z,45.22
2018-04-23T03:39:58.171Z,45.38
2018-04-23T03:40:58.131Z,45.25
2018-04-23T03:41:58.276Z,45.28
2018-04-23T03:42:58.139Z,45.26
2018-04-23T03:43:58.228Z,45.29
2018-04-23T03:44:57.973Z,45.27
2018-04-23T03:45:58.180Z,45.35
2018-04-23T03:46:58.107Z,45.26
2018-04-23T03:47:58.069Z,45.24
2018-04-23T03:48:58.176Z,45.34
2018-04-23T03:49:58.068Z,45.34
2018-04-23T03:50:58.044Z,45.27
2018-04-23T03:51:58.159Z,45.33
2018-04-23T03:52:58.155Z,45.3
2018-04-23T03:53:58.126Z,45.21
2018-04-23T03:54:58.212Z,45.24
2018-04-23T03:55:58.036Z,45.23
2018-04-23T03:56:58.004Z,45.23
2018-04-23T03:57:58.111Z,45.35
2018-04-23T03:58:58.118Z,45.25
2018-04-23T03:59:58.179Z,45.23
2018-04-23T04:00:58.221Z,45.29
2018-04-23T04:01:58.198Z,45.3
2018-04-23T04:02:58.056Z,45.2
2018-04-23T04:03:58.184Z,45.33
2018-04-23T04:04:58.477Z,45.25
2018-04-23T04:05:58.067Z,45.23
2018-04-23T04:06:58.090Z,45.27
2018-04-23T04:07:58.129Z,45.24
2018-04-23T04:08:58.114Z,45.23
2018-04-23T04:09:58.246Z,45.24
2018-04-23T04:10:58.241Z,45.22
2018-04-23T04:11:58.126Z,45.25
2018-04-23T04:12:58.052Z,45.29
2018-04-23T04:13:58.105Z,45.22
2018-04-23T04:14:58.192Z,45.29
2018-04-23T04:15:58.382Z,45.31
2018-04-23T04:16:58.275Z,45.22
2018-04-23T04:17:58.088Z,45.24
2018-04-23T04:18:58.055Z,45.23
2018-04-23T04:19:58.109Z,45.25
2018-04-23T04:20:58.133Z,45.24
2018-04-23T04:21:58.046Z,45.26
2018-04-23T04:22:58.272Z,45.23
2018-04-23T04:23:58.042Z,45.19
2018-04-23T04:24:58.179Z,45.26
2018-04-23T04:25:58.088Z,45.21
2018-04-23T04:26:58.013Z,45.25
2018-04-23T04:27:58.135Z,45.26
2018-04-23T04:28:58.280Z,45.2
2018-04-23T04:29:58.301Z,45.16
2018-04-23T04:30:58.106Z,45.29
2018-04-23T04:31:58.101Z,45.21
2018-04-23T04:32:58.233Z,45.21
2018-04-23T04:33:58.109Z,45.22
2018-04-23T04:34:58.005Z,45.2
2018-04-23T04:35:58.373Z,45.24
2018-04-23T04:36:58.202Z,45.25
2018-04-23T04:37:58.151Z,45.23
2018-04-23T04:38:58.205Z,45.19
2018-04-23T04:39:58.246Z,45.22
2018-04-23T04:40:58.148Z,45.23
2018-04-23T04:41:58.124Z,45.15
2018-04-23T04:42:58.043Z,45.29
2018-04-23T04:43:58.217Z,45.24
2018-04-23T04:44:58.139Z,45.21
2018-04-23T04:45:58.055Z,45.24
2018-04-23T04:46:57.859Z,45.22
2018-04-23T04:47:58.046Z,45.22
2018-04-23T04:48:58.037Z,45.2
2018-04-23T04:49:58.013Z,45.25
2018-04-23T04:50:58.181Z,45.15
2018-04-23T04:51:58.081Z,45.28
2018-04-23T04:52:58.226Z,45.27
2018-04-23T04:53:58.202Z,45.26
2018-04-23T04:54:58.082Z,45.34
2018-04-23T04:55:58.129Z,45.27
2018-04-23T04:56:58.031Z,45.26
2018-04-23T04:57:58.107Z,45.31
2018-04-23T04:58:58.115Z,45.25
2018-04-23T04:59:58.165Z,45.3
2018-04-23T05:00:58.273Z,45.24
2018-04-23T05:01:58.101Z,45.23
2018-04-23T05:02:58.273Z,45.27
2018-04-23T05:03:58.223Z,45.32
2018-04-23T05:04:58.221Z,45.27
2018-04-23T05:05:58.132Z,45.22
2018-04-23T05:06:58.124Z,45.29
2018-04-23T05:07:58.035Z,45.23
2018-04-23T05:08:57.985Z,45.17
2018-04-23T05:09:58.053Z,45.26
2018-04-23T05:10:58.281Z,45.25
2018-04-23T05:11:58.226Z,45.23
2018-04-23T05:12:58.219Z,45.26
2018-04-23T05:13:58.306Z,45.18
2018-04-23T05:14:57.982Z,45.21
2018-04-23T05:15:58.041Z,45.36
2018-04-23T05:16:58.033Z,45.24
2018-04-23T05:17:58.071Z,45.2
2018-04-23T05:18:58.080Z,45.26
2018-04-23T05:19:58.155Z,45.22
2018-04-23T05:20:58.262Z,45.2
2018-04-23T05:21:58.198Z,45.22
2018-04-23T05:22:57.994Z,45.23
2018-04-23T05:23:58.089Z,45.24
2018-04-23T05:24:57.981Z,45.24
2018-04-23T05:25:58.230Z,45.23
2018-04-23T05:26:58.029Z,45.2
2018-04-23T05:27:58.032Z,45.27
2018-04-23T05:28:58.136Z,45.2
2018-04-23T05:29:58.094Z,45.16
2018-04-23T05:30:58.125Z,45.31
2018-04-23T05:31:58.259Z,45.16
2018-04-23T05:32:58.189Z,45.22
2018-04-23T05:33:58.006Z,45.25
2018-04-23T05:34:58.029Z,45.19
2018-04-23T05:35:57.962Z,45.16
2018-04-23T05:36:58.195Z,45.3
2018-04-23T05:37:58.046Z,45.16
2018-04-23T05:38:58.052Z,45.16
2018-04-23T05:39:58.123Z,45.27
2018-04-23T05:40:58.117Z,45.2
2018-04-23T05:41:58.156Z,45.19
2018-04-23T05:42:58.089Z,45.22
2018-04-23T05:43:58.203Z,45.2
2018-04-23T05:44:58.089Z,45.17
2018-04-23T05:45:58.157Z,45.22
2018-04-23T05:46:58.139Z,45.21
2018-04-23T05:47:58.493Z,45.2
2018-04-23T05:48:58.237Z,45.28
2018-04-23T05:49:57.880Z,45.19
2018-04-23T05:50:58.097Z,45.17
2018-04-23T05:51:58.030Z,45.19
2018-04-23T05:52:57.999Z,45.19
2018-04-23T05:53:58.007Z,45.17
2018-04-23T05:54:58.066Z,45.2
2018-04-23T05:55:57.981Z,45.11
2018-04-23T05:56:58.167Z,45.14
2018-04-23T05:57:58.033Z,45.24
2018-04-23T05:58:58.057Z,45.15
2018-04-23T05:59:58.165Z,45.17
2018-04-23T06:00:57.991Z,45.22
2018-04-23T06:01:58.063Z,45.23
2018-04-23T06:02:58.002Z,45.13
2018-04-23T06:03:57.994Z,45.28
2018-04-23T06:04:58.190Z,45.2
2018-04-23T06:05:58.224Z,45.15
2018-04-23T06:06:57.941Z,45.27
2018-04-23T06:07:58.210Z,45.19
2018-04-23T06:08:58.120Z,45.06
2018-04-23T06:09:58.117Z,45.16
2018-04-23T06:10:58.070Z,45.11
2018-04-23T06:11:58.143Z,45.11
2018-04-23T06:12:58.103Z,45.18
2018-04-23T06:13:58.101Z,45.16
2018-04-23T06:14:57.945Z,45.2
2018-04-23T06:15:58.100Z,45.24
2018-04-23T06:16:58.196Z,45.19
2018-04-23T06:17:58.167Z,45.14
2018-04-23T06:18:58.135Z,45.51
2018-04-23T06:19:58.040Z,45.32
2018-04-23T06:20:58.013Z,45.45
2018-04-23T06:21:58.094Z,45.59
2018-04-23T06:22:58.144Z,45.64
2018-04-23T06:23:57.990Z,45.64
2018-04-23T06:24:58.004Z,45.63
2018-04-23T06:25:58.120Z,45.75
2018-04-23T06:26:58.055Z,45.65
2018-04-23T06:27:58.180Z,45.69
2018-04-23T06:28:58.139Z,45.63
2018-04-23T06:29:58.230Z,45.86
2018-04-23T06:30:58.119Z,45.77
2018-04-23T06:31:58.201Z,45.73
2018-04-23T06:32:58.114Z,45.68
2018-04-23T06:33:58.064Z,45.75
2018-04-23T06:34:58.161Z,45.79
2018-04-23T06:35:58.209Z,45.69
2018-04-23T06:36:58.238Z,45.83
2018-04-23T06:37:58.011Z,45.82
2018-04-23T06:38:57.978Z,45.87
2018-04-23T06:39:57.958Z,45.98
2018-04-23T06:40:58.075Z,45.88
2018-04-23T06:41:58.132Z,45.92
2018-04-23T06:42:58.298Z,46
2018-04-23T06:43:58.170Z,45.95
2018-04-23T06:44:58.166Z,45.89
2018-04-23T06:45:57.935Z,45.87
2018-04-23T06:46:58.142Z,45.96
2018-04-23T06:47:58.176Z,46.25
2018-04-23T06:48:58.232Z,46.38
2018-04-23T06:49:58.035Z,46.4
2018-04-23T06:50:58.010Z,46.26
2018-04-23T06:51:58.061Z,46.32
2018-04-23T06:52:58.035Z,46.14
2018-04-23T06:53:58.140Z,46.53
2018-04-23T06:54:58.112Z,46.64
2018-04-23T06:55:58.167Z,46.47
2018-04-23T06:56:58.073Z,46.41
2018-04-23T06:57:58.174Z,46.46
2018-04-23T06:58:58.046Z,46.39
2018-04-23T06:59:58.182Z,46.38
2018-04-23T07:00:57.995Z,46.36
2018-04-23T07:01:58.160Z,46.43
2018-04-23T07:02:58.029Z,46.43
2018-04-23T07:03:58.214Z,46.51
2018-04-23T07:04:58.158Z,46.3
2018-04-23T07:05:58.146Z,46.35
2018-04-23T07:06:57.968Z,46.37
2018-04-23T07:07:58.139Z,46.23
2018-04-23T07:08:58.101Z,46.18
2018-04-23T07:09:58.062Z,46.35
2018-04-23T07:10:58.081Z,46.28
2018-04-23T07:11:58.089Z,46.25
2018-04-23T07:12:58.149Z,46.33
2018-04-23T07:13:58.146Z,46.35
2018-04-23T07:14:58.044Z,46.22
2018-04-23T07:15:58.072Z,46.22
2018-04-23T07:16:58.165Z,46.25
2018-04-23T07:17:58.058Z,46.22
2018-04-23T07:18:58.228Z,46.47
2018-04-23T07:19:58.291Z,46.41
2018-04-23T07:20:58.248Z,46.24
2018-04-23T07:21:57.968Z,46.34
2018-04-23T07:22:58.142Z,46.19
2018-04-23T07:23:57.978Z,46.13
2018-04-23T07:24:58.113Z,46.35
2018-04-23T07:25:58.124Z,46.09
2018-04-23T07:26:57.943Z,46.2
2018-04-23T07:27:58.236Z,46.39
2018-04-23T07:28:58.148Z,46.19
2018-04-23T07:29:57.951Z,45.95
2018-04-23T07:30:58.015Z,45.88
2018-04-23T07:31:57.977Z,46.1
2018-04-23T07:32:57.929Z,46.29
2018-04-23T07:33:58.159Z,46.34
2018-04-23T07:34:58.151Z,46.25
2018-04-23T07:35:58.093Z,46.26
2018-04-23T07:36:58.070Z,46.29
2018-04-23T07:37:58.040Z,46.38
2018-04-23T07:38:58.148Z,46.45
2018-04-23T07:39:58.141Z,46.49
2018-04-23T07:40:58.038Z,46.58
2018-04-23T07:41:58.200Z,46.56
2018-04-23T07:42:57.963Z,46.58
2018-04-23T07:43:58.147Z,46.49
2018-04-23T07:44:58.208Z,46.54
2018-04-23T07:45:58.000Z,46.58
2018-04-23T07:46:58.079Z,46.62
2018-04-23T07:47:58.000Z,46.69
2018-04-23T07:49:00.272Z,46.77
2018-04-23T07:49:58.085Z,46.79
2018-04-23T07:50:58.254Z,46.79
2018-04-23T07:51:57.961Z,46.69
2018-04-23T07:52:58.152Z,46.71
2018-04-23T07:53:58.116Z,46.75
2018-04-23T07:54:57.802Z,46.86
2018-04-23T07:55:58.226Z,46.86
2018-04-23T07:56:58.128Z,46.84
2018-04-23T07:57:58.004Z,46.96
2018-04-23T07:58:57.942Z,46.74
2018-04-23T07:59:58.015Z,46.91
2018-04-23T08:00:58.045Z,46.73
2018-04-23T08:01:58.266Z,46.7
2018-04-23T08:02:58.173Z,46.82
2018-04-23T08:03:58.058Z,46.71
2018-04-23T08:04:57.978Z,46.65
2018-04-23T08:05:58.010Z,46.76
2018-04-23T08:06:58.223Z,46.8
2018-04-23T08:07:58.010Z,46.8
2018-04-23T08:08:58.153Z,46.71
2018-04-23T08:09:58.048Z,46.73
2018-04-23T08:10:57.926Z,46.65
2018-04-23T08:11:58.002Z,46.69
2018-04-23T08:12:58.071Z,46.73
2018-04-23T08:13:57.936Z,46.77
2018-04-23T08:14:58.167Z,46.73
2018-04-23T08:15:57.911Z,46.75
2018-04-23T08:16:58.043Z,46.86
2018-04-23T08:17:58.162Z,46.62
2018-04-23T08:18:57.908Z,46.54
2018-04-23T08:19:57.912Z,46.6
2018-04-23T08:20:58.049Z,46.65
2018-04-23T08:21:58.113Z,46.68
2018-04-23T08:22:58.038Z,46.44
2018-04-23T08:23:58.066Z,46.48
2018-04-23T08:24:58.097Z,46.65
2018-04-23T08:25:58.151Z,46.55
2018-04-23T08:26:58.002Z,46.53
2018-04-23T08:27:58.058Z,46.54
2018-04-23T08:28:58.301Z,46.58
2018-04-23T08:29:58.254Z,46.48
2018-04-23T08:30:58.109Z,46.43
2018-04-23T08:31:58.324Z,46.39
2018-04-23T08:32:58.116Z,46.62
2018-04-23T08:33:58.205Z,46.72
2018-04-23T08:34:58.101Z,46.71
2018-04-23T08:35:57.911Z,46.6
2018-04-23T08:36:58.074Z,46.59
2018-04-23T08:37:58.062Z,46.59
2018-04-23T08:38:58.317Z,46.52
2018-04-23T08:39:58.238Z,46.4
2018-04-23T08:40:57.941Z,46.21
2018-04-23T08:41:58.172Z,46.35
2018-04-23T08:42:58.012Z,46.38
2018-04-23T08:43:58.522Z,46.61
2018-04-23T08:44:57.955Z,46.51
2018-04-23T08:45:58.251Z,46.5
2018-04-23T08:46:57.995Z,46.37
2018-04-23T08:47:58.039Z,46.37
2018-04-23T08:48:58.208Z,46.48
2018-04-23T08:49:57.976Z,46.36
2018-04-23T08:50:57.930Z,46.25
2018-04-23T08:51:58.133Z,46.35
2018-04-23T08:52:57.958Z,46.37
2018-04-23T08:53:58.059Z,46.29
2018-04-23T08:54:58.075Z,46.4
2018-04-23T08:55:58.104Z,46.24
2018-04-23T08:56:58.009Z,46.29
2018-04-23T08:57:58.141Z,46.4
2018-04-23T08:58:57.996Z,46.37
2018-04-23T08:59:57.990Z,46.78
2018-04-23T09:00:58.012Z,46.66
2018-04-23T09:01:57.999Z,46.48
2018-04-23T09:02:58.097Z,46.41
2018-04-23T09:03:58.180Z,46.5
2018-04-23T09:04:58.050Z,46.44
2018-04-23T09:05:58.140Z,46.37
2018-04-23T09:06:58.097Z,46.46
2018-04-23T09:07:58.050Z,46.36
2018-04-23T09:08:58.230Z,46.21
2018-04-23T09:09:57.955Z,46.32
2018-04-23T09:10:58.069Z,46.34
2018-04-23T09:11:57.913Z,46.55
2018-04-23T09:12:57.899Z,46.39
2018-04-23T09:13:58.004Z,46.31
2018-04-23T09:14:58.151Z,46.23
2018-04-23T09:15:57.932Z,46.44
2018-04-23T09:16:58.107Z,46.3
2018-04-23T09:17:58.176Z,46.27
2018-04-23T09:18:57.931Z,46.31
2018-04-23T09:19:58.020Z,46.29
2018-04-23T09:20:58.032Z,46.2
2018-04-23T09:21:58.081Z,46.26
2018-04-23T09:22:58.028Z,46.19
2018-04-23T09:23:58.038Z,46.18
2018-04-23T09:24:58.043Z,46.3
2018-04-23T09:25:58.125Z,46.2
2018-04-23T09:26:58.174Z,46.15
2018-04-23T09:27:58.007Z,46.29
2018-04-23T09:28:58.074Z,46.27
2018-04-23T09:29:57.964Z,46.24
2018-04-23T09:30:58.036Z,46.28
2018-04-23T09:31:58.068Z,46.25
2018-04-23T09:32:58.163Z,46.17
2018-04-23T09:33:58.130Z,46.34
2018-04-23T09:34:57.758Z,46.26
2018-04-23T09:36:00.438Z,46.21
2018-04-23T09:36:58.064Z,46.3
2018-04-23T09:37:58.171Z,46.16
2018-04-23T09:38:58.128Z,46.22
2018-04-23T09:39:57.927Z,46.31
2018-04-23T09:40:58.033Z,46.07
2018-04-23T09:41:57.957Z,46.23
2018-04-23T09:42:58.239Z,46.27
2018-04-23T09:43:57.985Z,46.15
2018-04-23T09:44:58.113Z,46.08
2018-04-23T09:45:57.895Z,46.42
2018-04-23T09:46:58.003Z,46.45
2018-04-23T09:47:58.187Z,46.31
2018-04-23T09:48:57.910Z,46.28
2018-04-23T09:49:58.072Z,46.28
2018-04-23T09:50:58.138Z,46.24
2018-04-23T09:51:58.100Z,46.27
2018-04-23T09:52:58.345Z,46.29
2018-04-23T09:53:58.150Z,46.29
2018-04-23T09:54:58.061Z,46.32
2018-04-23T09:55:58.159Z,46.23
2018-04-23T09:56:57.932Z,46.04
2018-04-23T09:57:58.151Z,46.13
2018-04-23T09:58:58.051Z,46.15
2018-04-23T09:59:58.134Z,46.15
2018-04-23T10:00:58.020Z,46.2
2018-04-23T10:01:58.164Z,46.25
2018-04-23T10:03:00.709Z,46.43
2018-04-23T10:03:58.090Z,46.57
2018-04-23T10:04:58.069Z,46.54
2018-04-23T10:05:58.194Z,46.3
2018-04-23T10:06:58.167Z,46.42
2018-04-23T10:07:58.189Z,46.32
2018-04-23T10:08:58.077Z,46.25
2018-04-23T10:09:57.974Z,46.3
2018-04-23T10:10:58.152Z,46.22
2018-04-23T10:11:58.112Z,46.27
2018-04-23T10:12:58.399Z,46.25
2018-04-23T10:13:58.168Z,46.25
2018-04-23T10:14:58.077Z,46.24
2018-04-23T10:15:57.887Z,46.21
2018-04-23T10:16:58.151Z,46.13
2018-04-23T10:17:58.056Z,46.19
2018-04-23T10:18:58.091Z,46.2
2018-04-23T10:19:57.959Z,46.12
2018-04-23T10:20:58.149Z,46.12
2018-04-23T10:21:57.988Z,46.15
2018-04-23T10:22:58.049Z,46.08
2018-04-23T10:23:58.094Z,46.39
2018-04-23T10:24:58.067Z,46.17
2018-04-23T10:25:57.999Z,46.14
2018-04-23T10:26:58.083Z,46.27
2018-04-23T10:27:58.131Z,46.22
2018-04-23T10:28:57.939Z,46.47
2018-04-23T10:29:57.965Z,46.67
2018-04-23T10:30:58.099Z,46.68
2018-04-23T10:31:58.164Z,47.35
2018-04-23T10:32:58.125Z,47.17
2018-04-23T10:33:58.051Z,47.29
2018-04-23T10:34:57.936Z,47.54
2018-04-23T10:35:57.999Z,47.12
2018-04-23T10:36:58.062Z,47.33
2018-04-23T10:37:57.951Z,47.31
2018-04-23T10:38:58.187Z,47.11
2018-04-23T10:39:57.897Z,47.06
2018-04-23T10:40:58.122Z,47.24
2018-04-23T10:41:58.351Z,47.09
2018-04-23T10:42:58.099Z,47.32
2018-04-23T10:43:58.054Z,47.13
2018-04-23T10:44:57.863Z,47.54
2018-04-23T10:45:58.057Z,47.04
2018-04-23T10:46:58.006Z,46.88
2018-04-23T10:47:58.072Z,47.7
2018-04-23T10:48:58.085Z,47.36
2018-04-23T10:49:58.133Z,47.34
2018-04-23T10:50:58.160Z,47.41
2018-04-23T10:51:58.049Z,47.69
2018-04-23T10:52:58.122Z,47.01
2018-04-23T10:53:58.263Z,47.04
2018-04-23T10:54:58.266Z,47.08
2018-04-23T10:55:58.042Z,47.34
2018-04-23T10:56:57.917Z,47.25
2018-04-23T10:57:58.120Z,47.25
2018-04-23T10:58:57.921Z,47.36
2018-04-23T10:59:58.140Z,47.19
2018-04-23T11:00:58.105Z,47.12
2018-04-23T11:01:57.920Z,47.29
2018-04-23T11:02:58.161Z,47.15
2018-04-23T11:03:57.895Z,47.2
2018-04-23T11:04:58.336Z,47.22
2018-04-23T11:05:58.131Z,47.15
2018-04-23T11:06:57.943Z,47.12
2018-04-23T11:07:58.173Z,47.18
2018-04-23T11:08:57.890Z,47.23
2018-04-23T11:09:58.156Z,47.38
2018-04-23T11:10:58.025Z,47.35
2018-04-23T11:11:58.057Z,47.49
2018-04-23T11:12:58.047Z,47.13
2018-04-23T11:13:57.910Z,47.25
2018-04-23T11:14:58.257Z,47.42
2018-04-23T11:15:58.008Z,48
2018-04-23T11:16:58.071Z,48.33
2018-04-23T11:17:58.057Z,47.37
2018-04-23T11:18:58.185Z,48.46
2018-04-23T11:19:57.926Z,47.98
2018-04-23T11:20:58.046Z,48.15
2018-04-23T11:21:57.968Z,48.31
2018-04-23T11:22:58.036Z,47.62
2018-04-23T11:23:58.051Z,47.55
2018-04-23T11:24:57.852Z,47.54
2018-04-23T11:25:57.888Z,48.11
2018-04-23T11:26:58.009Z,47.65
2018-04-23T11:27:58.076Z,47.46
2018-04-23T11:28:57.923Z,47.43
2018-04-23T11:29:57.973Z,48.32
2018-04-23T11:30:58.060Z,47.33
2018-04-23T11:31:57.870Z,47.44
2018-04-23T11:32:57.998Z,49.58
2018-04-23T11:33:58.056Z,47.38
2018-04-23T11:34:58.016Z,47.03
2018-04-23T11:35:57.937Z,47.05
2018-04-23T11:36:58.121Z,46.99
2018-04-23T11:37:57.952Z,47.14
2018-04-23T11:38:57.966Z,47.01
2018-04-23T11:39:58.059Z,47.09
2018-04-23T11:40:57.994Z,47.09
2018-04-23T11:41:58.082Z,48.09
2018-04-23T11:42:58.386Z,47.16
2018-04-23T11:43:58.033Z,47.03
2018-04-23T11:44:58.071Z,47.04
2018-04-23T11:45:57.763Z,47.38
2018-04-23T11:46:57.998Z,46.85
2018-04-23T11:47:58.127Z,46.83
2018-04-23T11:48:58.053Z,46.92
2018-04-23T11:49:57.852Z,46.66
2018-04-23T11:50:58.106Z,46.78
2018-04-23T11:51:57.928Z,46.84
2018-04-23T11:52:58.065Z,46.67
2018-04-23T11:53:58.093Z,46.65
2018-04-23T11:54:58.052Z,46.86
2018-04-23T11:55:58.261Z,46.56
2018-04-23T11:56:58.072Z,46.54
2018-04-23T11:57:58.001Z,46.19
2018-04-23T11:58:58.096Z,46.2
2018-04-23T11:59:57.972Z,46.3
2018-04-23T12:00:58.120Z,46.38
2018-04-23T12:01:57.858Z,46.41
2018-04-23T12:02:58.045Z,46.38
2018-04-23T12:03:57.952Z,46.35
2018-04-23T12:04:58.132Z,46.57
2018-04-23T12:33:56.598Z,50.05
2018-04-23T12:34:56.411Z,47.76
2018-04-23T12:35:58.123Z,47.33
2018-04-23T12:36:57.951Z,47.13
2018-04-23T12:40:31.030Z,47.14
2018-04-23T12:41:31.036Z,47.28
2018-04-23T12:42:31.030Z,47.21
2018-04-23T12:43:30.921Z,47.1
2018-04-23T12:44:31.208Z,46.82
2018-04-23T12:45:31.044Z,47.04
2018-04-23T12:46:31.178Z,46.91
2018-04-23T12:47:31.128Z,46.71
2018-04-23T12:48:31.007Z,46.74
2018-04-23T12:49:05.611Z,48.39
2018-04-23T12:50:05.670Z,47.89
2018-04-23T12:51:05.710Z,47.9
2018-04-23T12:52:05.819Z,47.01
2018-04-23T12:53:05.900Z,46.79
2018-04-23T12:54:06.055Z,46.82
2018-04-23T12:55:05.944Z,46.81
2018-04-23T12:56:05.744Z,46.96
2018-04-23T12:57:05.854Z,46.89
2018-04-23T12:58:05.574Z,46.77
2018-04-23T12:59:05.960Z,46.83
2018-04-23T13:00:05.757Z,46.78
2018-04-23T13:01:05.813Z,46.67
2018-04-23T13:02:05.624Z,46.7
2018-04-23T13:03:05.624Z,46.63
2018-04-23T13:04:05.876Z,46.57
2018-04-23T13:05:05.673Z,46.55
2018-04-23T13:06:06.004Z,46.61
2018-04-23T13:07:05.876Z,46.52
2018-04-23T13:08:05.853Z,46.49
2018-04-23T13:09:05.970Z,46.53
2018-04-23T13:10:05.956Z,46.46
2018-04-23T13:11:05.621Z,46.47
2018-04-23T13:12:05.630Z,46.44
2018-04-23T13:13:05.770Z,46.42
2018-04-23T13:14:05.956Z,46.43
2018-04-23T13:15:05.683Z,46.47
2018-04-23T13:16:05.819Z,46.33
2018-04-23T13:17:05.828Z,46.33
2018-04-23T13:18:05.608Z,46.34
2018-04-23T13:19:05.901Z,46.29
2018-04-23T13:20:05.871Z,46.33
2018-04-23T13:21:05.591Z,46.26
2018-04-23T13:22:05.814Z,46.17
2018-04-23T13:23:05.924Z,46.36
2018-04-23T13:24:05.835Z,46.19
2018-04-23T13:25:05.934Z,46.09
2018-04-23T13:26:05.755Z,46.21